Terminal Aerodrome Forecast
Issued by NWS Brownsville, TX

Home | Current Version | Previous Version | Text Only | Print | Product List | Glossary On
Versions: 1 2 3 4 5 6 7 8 9 10 11 12 13 14 15
000
FTUS44 KBRO 051720
TAFHRL
TAF
KHRL 051720Z 0518/0618 14018G24KT P6SM SCT026 SCT040 OVC050
     FM060300 14010KT P6SM BKN015
     FM061500 14015G20KT P6SM SCT015 BKN030=

USA.gov is the U.S. government's official web portal to all federal, state and local government web resources and services.